createdAt,value
2017-06-14T04:46:22.964Z,2696
2017-06-14T04:46:48.436Z,2728
2017-06-14T04:47:13.906Z,2748
2017-06-14T04:47:39.381Z,2776
2017-06-14T04:48:04.855Z,2796
2017-06-14T04:48:30.331Z,2800
2017-06-14T04:48:55.810Z,2816
2017-06-14T04:49:21.278Z,2832
2017-06-14T04:49:46.749Z,2840
2017-06-14T04:50:12.204Z,2852
2017-06-14T04:50:37.675Z,2876
2017-06-14T04:51:03.113Z,2892
2017-06-14T04:51:28.565Z,2908
2017-06-14T04:51:54.059Z,2920
2017-06-14T04:52:19.550Z,2936
2017-06-14T04:52:45.024Z,2952
2017-06-14T04:53:10.522Z,2964
2017-06-14T04:53:35.987Z,2976
2017-06-14T04:54:01.430Z,2984
2017-06-14T04:54:26.925Z,3000
2017-06-14T04:54:52.400Z,3012
2017-06-14T04:55:17.896Z,3024
2017-06-14T04:55:43.382Z,3036
2017-06-14T04:56:08.836Z,3044
2017-06-14T04:56:34.315Z,3052
2017-06-14T04:56:59.799Z,3068
2017-06-14T04:57:25.226Z,3076
2017-06-14T04:57:50.706Z,3088
2017-06-14T04:58:16.146Z,3100
2017-06-14T04:58:41.647Z,3112
2017-06-14T04:59:07.178Z,3120
2017-06-14T04:59:32.622Z,3132
2017-06-14T04:59:58.086Z,3136
2017-06-14T05:00:23.540Z,3156
2017-06-14T05:00:49.043Z,3172
2017-06-14T05:01:14.529Z,3180
2017-06-14T05:01:39.982Z,3200
2017-06-14T05:02:05.473Z,3212
2017-06-14T05:02:30.961Z,3224
2017-06-14T05:02:56.437Z,3232
2017-06-14T05:03:21.892Z,3252
2017-06-14T05:03:47.367Z,3264
2017-06-14T05:04:12.838Z,3280
2017-06-14T05:04:38.304Z,3296
2017-06-14T05:05:03.771Z,3316
2017-06-14T05:05:29.255Z,3340
2017-06-14T05:05:54.760Z,3364
2017-06-14T05:06:20.235Z,3388
2017-06-14T05:06:45.708Z,3416
2017-06-14T05:07:11.177Z,3452
2017-06-14T05:07:36.642Z,3492
2017-06-14T05:08:02.115Z,3528
2017-06-14T05:08:27.620Z,3564
2017-06-14T05:08:53.085Z,3612
2017-06-14T05:09:18.557Z,3656
2017-06-14T05:09:44.041Z,3712
2017-06-14T05:10:09.535Z,3760
2017-06-14T05:10:35.001Z,3812
2017-06-14T05:11:00.472Z,3876
2017-06-14T05:11:25.951Z,3940
2017-06-14T05:11:51.429Z,4028
2017-06-14T05:12:16.923Z,4108
2017-06-14T05:12:42.419Z,4212
2017-06-14T05:13:07.888Z,4328
2017-06-14T05:13:33.353Z,4504
2017-06-14T05:13:58.834Z,4820
2017-06-14T05:14:24.341Z,5480
2017-06-14T05:14:49.782Z,6340
2017-06-14T05:15:15.257Z,7632
2017-06-14T05:15:40.730Z,8828
2017-06-14T05:16:06.202Z,10316
2017-06-14T05:16:31.663Z,11828
2017-06-14T05:16:57.171Z,13148
2017-06-14T05:17:22.665Z,14084
2017-06-14T05:17:48.150Z,14660
2017-06-14T05:18:13.639Z,14640
2017-06-14T05:18:39.124Z,14228
2017-06-14T05:19:04.572Z,13264
2017-06-14T05:19:30.032Z,11484
2017-06-14T05:19:55.518Z,9472
2017-06-14T05:20:21.004Z,7572
2017-06-14T05:20:46.489Z,5824
2017-06-14T05:21:11.977Z,4436
2017-06-14T05:21:37.458Z,3956
2017-06-14T05:22:02.952Z,3812
2017-06-14T05:22:28.416Z,3744
2017-06-14T05:22:53.943Z,3716
2017-06-14T05:23:19.421Z,3784
2017-06-14T05:23:44.912Z,3784
2017-06-14T05:24:10.417Z,3772
2017-06-14T05:24:35.911Z,3768
2017-06-14T05:25:01.384Z,3764
2017-06-14T05:25:26.841Z,3764
2017-06-14T05:25:52.293Z,3764
2017-06-14T05:26:17.757Z,3764
2017-06-14T05:26:43.234Z,3760
2017-06-14T05:27:08.713Z,3756
2017-06-14T05:27:34.161Z,3752
2017-06-14T05:27:59.638Z,3752
2017-06-14T05:28:25.123Z,3752
2017-06-14T05:28:50.592Z,3744
2017-06-14T05:29:16.078Z,3744
2017-06-14T05:29:41.577Z,3740
2017-06-14T05:30:07.040Z,3740
2017-06-14T05:30:32.509Z,3740
2017-06-14T05:30:57.994Z,3744
2017-06-14T05:31:23.474Z,3748
2017-06-14T05:31:48.947Z,3748
2017-06-14T05:32:14.440Z,3752
2017-06-14T05:32:39.920Z,3756
2017-06-14T05:33:05.423Z,3756
2017-06-14T05:33:30.912Z,3764
2017-06-14T05:33:56.360Z,3760
2017-06-14T05:34:21.820Z,3768
2017-06-14T05:34:47.315Z,3772
2017-06-14T05:35:12.772Z,3776
2017-06-14T05:35:38.253Z,3780
2017-06-14T05:36:03.768Z,3788
2017-06-14T05:36:29.229Z,3796
2017-06-14T05:36:54.683Z,3800
2017-06-14T05:37:20.170Z,3804
2017-06-14T05:37:45.668Z,3812
2017-06-14T05:38:11.138Z,3820
2017-06-14T05:38:36.605Z,3824
2017-06-14T05:39:02.081Z,3832
2017-06-14T05:39:27.536Z,3844
2017-06-14T05:39:52.988Z,3856
2017-06-14T05:40:18.460Z,3864
2017-06-14T05:40:43.877Z,3872
2017-06-14T05:41:09.378Z,3880
2017-06-14T05:41:34.845Z,3884
2017-06-14T05:42:00.340Z,3892
2017-06-14T05:42:25.791Z,3896
2017-06-14T05:42:51.266Z,3896
2017-06-14T05:43:16.745Z,3904
2017-06-14T05:43:42.204Z,3912
2017-06-14T05:44:07.702Z,3920
2017-06-14T05:44:33.162Z,3932
2017-06-14T05:44:58.665Z,3936
2017-06-14T05:45:24.146Z,3932
2017-06-14T05:45:49.628Z,3940
2017-06-14T05:46:15.137Z,3948
2017-06-14T05:46:40.609Z,3964
2017-06-14T05:47:06.096Z,3980
2017-06-14T05:47:31.555Z,3992
2017-06-14T05:47:57.031Z,3988
2017-06-14T05:48:22.484Z,3992
2017-06-14T05:48:47.965Z,4000
2017-06-14T05:49:13.400Z,4012
2017-06-14T05:49:38.858Z,4028
2017-06-14T05:50:04.337Z,4040
2017-06-14T05:50:29.820Z,4044
2017-06-14T05:50:55.319Z,4048
2017-06-14T05:51:20.768Z,4056
2017-06-14T05:51:46.223Z,4068
2017-06-14T05:52:11.712Z,4076
2017-06-14T05:52:37.186Z,4092
2017-06-14T05:53:02.656Z,4108
2017-06-14T05:53:28.127Z,4116
2017-06-14T05:53:53.620Z,4128
2017-06-14T05:54:19.071Z,4140
2017-06-14T05:54:44.538Z,4136
2017-06-14T05:55:10.034Z,4144
2017-06-14T05:55:35.523Z,4156
2017-06-14T05:56:01.000Z,4164
2017-06-14T05:56:26.483Z,4164
2017-06-14T05:56:51.942Z,4168
2017-06-14T05:57:17.418Z,4168
2017-06-14T05:57:42.859Z,4160
2017-06-14T05:58:08.359Z,4156
2017-06-14T05:58:33.834Z,4160
2017-06-14T05:58:59.300Z,4168
2017-06-14T05:59:24.783Z,4168
2017-06-14T05:59:50.264Z,4168
2017-06-14T06:00:15.751Z,4172
2017-06-14T06:00:41.238Z,4176
2017-06-14T06:01:06.717Z,4176
2017-06-14T06:01:32.178Z,4184
2017-06-14T06:01:57.638Z,4180
2017-06-14T06:02:23.117Z,4188
2017-06-14T06:02:48.604Z,4200
2017-06-14T06:03:14.094Z,4204
2017-06-14T06:03:39.562Z,4216
2017-06-14T06:04:05.017Z,4216
2017-06-14T06:04:30.520Z,4216
2017-06-14T06:04:55.978Z,4220
2017-06-14T06:05:21.430Z,4228
2017-06-14T06:05:46.917Z,4236
2017-06-14T06:06:12.402Z,4240
2017-06-14T06:06:37.892Z,4248
2017-06-14T06:07:03.336Z,4256
2017-06-14T06:07:28.859Z,4268
2017-06-14T06:07:54.332Z,4272
2017-06-14T06:08:19.840Z,4276
2017-06-14T06:08:45.339Z,4276
2017-06-14T06:09:10.801Z,4280
2017-06-14T06:09:36.292Z,4292
2017-06-14T06:10:01.748Z,4300
2017-06-14T06:10:27.234Z,4300
2017-06-14T06:10:52.722Z,4304
2017-06-14T06:11:18.215Z,4296
2017-06-14T06:11:43.682Z,4320
2017-06-14T06:12:09.159Z,4320
2017-06-14T06:12:34.665Z,4328
2017-06-14T06:13:00.139Z,4336
2017-06-14T06:13:25.606Z,4336
2017-06-14T06:13:51.103Z,4332
2017-06-14T06:14:16.601Z,4332
2017-06-14T06:14:42.027Z,4332
2017-06-14T06:15:07.519Z,4332
2017-06-14T06:15:33.011Z,4348
2017-06-14T06:15:58.537Z,4360
2017-06-14T06:16:24.027Z,4356
2017-06-14T06:16:49.507Z,4376
2017-06-14T06:17:14.998Z,4372
2017-06-14T06:17:40.478Z,4384
2017-06-14T06:18:05.971Z,4396
2017-06-14T06:18:31.434Z,4396
2017-06-14T06:18:56.892Z,4416
2017-06-14T06:19:22.333Z,4424
2017-06-14T06:19:47.803Z,4428
2017-06-14T06:20:13.289Z,4432
2017-06-14T06:20:38.782Z,4436
2017-06-14T06:21:04.298Z,4428
2017-06-14T06:21:29.735Z,4420
2017-06-14T06:21:55.186Z,4412
2017-06-14T06:22:20.674Z,4400
2017-06-14T06:22:46.134Z,4424
2017-06-14T06:23:11.605Z,4416
2017-06-14T06:23:37.056Z,4392
2017-06-14T06:24:02.541Z,4388
2017-06-14T06:24:28.023Z,4392
2017-06-14T06:24:53.523Z,4380
2017-06-14T06:25:18.997Z,4400
2017-06-14T06:25:44.465Z,4416
2017-06-14T06:26:09.945Z,4416
2017-06-14T06:26:35.467Z,4420
2017-06-14T06:27:00.924Z,4444
2017-06-14T06:27:26.443Z,4420
2017-06-14T06:27:51.916Z,4416
2017-06-14T06:28:17.400Z,4452
2017-06-14T06:29:40.875Z,4504
2017-06-14T06:30:06.352Z,4516
2017-06-14T06:30:31.833Z,4524
2017-06-14T06:30:57.295Z,4512
2017-06-14T06:31:22.769Z,4520
2017-06-14T06:31:48.227Z,4532
2017-06-14T06:32:13.696Z,4544
2017-06-14T06:32:39.179Z,4556
2017-06-14T06:33:04.647Z,4564
2017-06-14T06:33:30.108Z,4584
2017-06-14T06:33:55.605Z,4600
2017-06-14T06:34:21.132Z,4604
2017-06-14T06:34:46.559Z,4600
2017-06-14T06:35:12.062Z,4596
2017-06-14T06:35:37.527Z,4564
2017-06-14T06:36:02.991Z,4560
2017-06-14T06:36:28.493Z,4584
2017-06-14T06:36:53.988Z,4612
2017-06-14T06:37:19.483Z,4624
2017-06-14T06:37:44.933Z,4636
2017-06-14T06:38:10.396Z,4656
2017-06-14T06:38:35.875Z,4684
2017-06-14T06:39:01.335Z,4696
2017-06-14T06:39:26.821Z,4692
2017-06-14T06:39:52.284Z,4696
2017-06-14T06:40:17.725Z,4720
2017-06-14T06:40:43.209Z,4732
2017-06-14T06:41:08.670Z,4720
2017-06-14T06:41:34.190Z,4708
2017-06-14T06:41:59.673Z,4708
2017-06-14T06:42:25.143Z,4704
2017-06-14T06:42:50.617Z,4716
2017-06-14T06:43:16.054Z,4732
2017-06-14T06:43:41.549Z,4736
2017-06-14T06:44:07.012Z,4736
2017-06-14T06:44:32.460Z,4736
2017-06-14T06:44:57.936Z,4724
2017-06-14T06:45:23.427Z,4716
2017-06-14T06:45:48.904Z,4716
2017-06-14T06:46:14.392Z,4720
2017-06-14T06:46:39.849Z,4724
2017-06-14T06:47:05.332Z,4736
2017-06-14T06:47:30.803Z,4740
2017-06-14T06:47:56.255Z,4764
2017-06-14T06:48:21.746Z,4752
2017-06-14T06:48:47.209Z,4648
2017-06-14T06:49:12.707Z,4660
2017-06-14T06:49:38.199Z,4696
2017-06-14T06:50:03.663Z,4784
2017-06-14T06:50:29.159Z,4760
2017-06-14T06:50:54.656Z,4764
2017-06-14T06:51:20.133Z,4756
2017-06-14T06:51:45.588Z,4768
2017-06-14T06:52:11.043Z,4800
2017-06-14T06:52:36.500Z,4792
2017-06-14T06:53:01.984Z,4812
2017-06-14T06:53:27.458Z,4832
2017-06-14T06:53:52.941Z,4868
2017-06-14T06:54:18.420Z,4884
2017-06-14T06:54:43.915Z,4908
2017-06-14T06:55:09.425Z,4948
2017-06-14T06:55:34.874Z,4928
2017-06-14T06:56:00.328Z,4952
2017-06-14T06:56:25.782Z,4956
2017-06-14T06:56:51.235Z,4988
2017-06-14T06:57:16.730Z,5024
2017-06-14T06:57:42.189Z,5032
2017-06-14T06:58:07.693Z,5036
2017-06-14T06:58:33.182Z,5044
2017-06-14T06:58:58.627Z,5064
2017-06-14T06:59:24.134Z,5072
2017-06-14T06:59:49.578Z,5100
2017-06-14T07:00:15.033Z,5116
2017-06-14T07:00:40.483Z,5128
2017-06-14T07:01:05.949Z,5148
2017-06-14T07:01:31.426Z,5168
2017-06-14T07:01:56.921Z,5192
2017-06-14T07:02:22.412Z,5216
2017-06-14T07:02:47.894Z,5240
2017-06-14T07:03:13.391Z,5264
2017-06-14T07:03:38.859Z,5288
2017-06-14T07:04:04.339Z,5324
2017-06-14T07:04:29.811Z,5332
2017-06-14T07:04:55.266Z,5308
2017-06-14T07:05:20.749Z,5144
2017-06-14T07:05:46.205Z,5116
2017-06-14T07:06:11.688Z,4884
2017-06-14T07:06:37.170Z,4404
2017-06-14T07:07:02.636Z,4288
2017-06-14T07:07:28.143Z,4476
2017-06-14T07:07:53.630Z,4676
2017-06-14T07:08:19.089Z,4724
2017-06-14T07:08:44.577Z,4692
2017-06-14T07:09:16.010Z,4848
2017-06-14T07:09:41.473Z,4792
2017-06-14T07:10:06.950Z,4976
2017-06-14T07:10:32.401Z,5244
2017-06-14T07:10:57.853Z,5140
2017-06-14T07:11:23.332Z,5032
2017-06-14T07:11:48.803Z,4976
2017-06-14T07:12:14.278Z,4532
2017-06-14T07:12:39.757Z,4720
2017-06-14T07:13:05.216Z,4624
2017-06-14T07:13:30.679Z,4476
2017-06-14T07:13:56.176Z,4460
2017-06-14T07:14:21.648Z,4640
2017-06-14T07:14:47.118Z,4688
2017-06-14T07:15:12.601Z,4744
2017-06-14T07:15:38.078Z,4688
2017-06-14T07:16:03.548Z,4736
2017-06-14T07:16:29.047Z,4684
2017-06-14T07:16:54.524Z,4692
2017-06-14T07:17:19.977Z,4684
2017-06-14T07:17:45.538Z,4456
2017-06-14T07:18:11.016Z,4696
2017-06-14T07:18:36.460Z,4864
2017-06-14T07:19:01.947Z,4952
2017-06-14T07:19:27.455Z,4836
2017-06-14T07:19:52.913Z,4900
2017-06-14T07:20:18.390Z,4804
2017-06-14T07:20:43.881Z,4796
2017-06-14T07:21:09.359Z,4748
2017-06-14T07:21:34.838Z,4608
2017-06-14T07:22:00.303Z,4016
2017-06-14T07:22:25.794Z,4044
2017-06-14T07:22:51.276Z,4196
2017-06-14T07:23:16.762Z,4068
2017-06-14T07:23:42.263Z,4032
2017-06-14T07:24:07.741Z,4228
2017-06-14T07:24:33.225Z,4048
2017-06-14T07:24:58.745Z,4172
2017-06-14T07:25:24.241Z,4040
2017-06-14T07:25:49.708Z,4136
2017-06-14T07:26:15.171Z,4056
2017-06-14T07:26:40.654Z,4356
2017-06-14T07:27:06.088Z,4508
2017-06-14T07:27:31.574Z,4668
2017-06-14T07:27:57.060Z,4644
2017-06-14T07:28:22.550Z,4808
2017-06-14T07:28:48.030Z,4776
2017-06-14T07:29:13.504Z,4780
2017-06-14T07:29:38.992Z,4724
2017-06-14T07:30:04.493Z,4748
2017-06-14T07:30:29.941Z,4756
2017-06-14T07:30:55.420Z,4744
2017-06-14T07:31:20.900Z,4724
2017-06-14T07:31:46.378Z,4708
2017-06-14T07:32:11.853Z,4660
2017-06-14T07:32:37.293Z,4688
2017-06-14T07:33:02.782Z,4680
2017-06-14T07:34:21.178Z,4620
2017-06-14T07:34:46.651Z,4608
2017-06-14T07:35:12.107Z,4612
2017-06-14T07:35:37.570Z,4600
2017-06-14T07:36:03.083Z,4572
2017-06-14T07:36:28.543Z,4552
2017-06-14T07:36:54.045Z,4520
2017-06-14T07:37:19.506Z,4496
2017-06-14T07:37:44.998Z,4484
2017-06-14T07:38:10.465Z,4472
2017-06-14T07:38:35.937Z,4460
2017-06-14T07:39:01.429Z,4444
2017-06-14T07:39:26.867Z,4432
2017-06-14T07:39:52.347Z,4420
2017-06-14T07:40:17.822Z,4404
2017-06-14T07:40:43.295Z,3820
2017-06-14T07:41:08.791Z,3204
2017-06-14T07:41:34.250Z,4020
2017-06-14T07:41:59.699Z,4072
2017-06-14T07:42:25.162Z,4172
2017-06-14T07:42:50.649Z,4236
2017-06-14T07:43:16.132Z,4320
2017-06-14T07:43:41.602Z,4356
2017-06-14T07:44:07.063Z,4356
2017-06-14T07:44:32.534Z,4356
2017-06-14T07:44:58.016Z,4356
2017-06-14T07:45:23.504Z,4352
2017-06-14T07:45:48.998Z,4348
2017-06-14T07:46:14.471Z,4352
2017-06-14T07:46:39.953Z,4360
2017-06-14T07:47:05.432Z,4360
2017-06-14T07:47:30.932Z,4360
2017-06-14T07:47:56.408Z,4368
2017-06-14T07:48:21.873Z,4376
2017-06-14T07:48:47.368Z,4380
2017-06-14T07:49:12.842Z,4396
2017-06-14T07:49:38.317Z,4404
2017-06-14T07:50:03.802Z,4416
2017-06-14T07:50:29.285Z,4428
2017-06-14T07:50:54.776Z,4432
2017-06-14T07:51:20.233Z,4444
2017-06-14T07:51:45.723Z,4444
2017-06-14T07:52:11.180Z,4440
2017-06-14T07:52:36.679Z,4436
2017-06-14T07:53:02.184Z,4420
2017-06-14T07:53:27.637Z,4416
2017-06-14T07:53:53.087Z,4416
2017-06-14T07:54:18.556Z,4412
2017-06-14T07:54:44.077Z,4404
2017-06-14T07:55:09.559Z,4404
2017-06-14T07:55:35.058Z,4400
2017-06-14T07:56:00.532Z,4396
2017-06-14T07:56:26.003Z,4388
2017-06-14T07:56:51.486Z,4384
2017-06-14T07:57:16.953Z,4372
2017-06-14T07:57:42.451Z,4360
2017-06-14T07:58:07.953Z,4340
2017-06-14T07:58:33.426Z,4324
2017-06-14T07:58:58.907Z,4316
2017-06-14T07:59:24.388Z,4300
2017-06-14T07:59:49.874Z,4284
2017-06-14T08:00:15.343Z,4264
2017-06-14T08:00:40.830Z,4244
2017-06-14T08:01:06.323Z,4240
2017-06-14T08:01:31.816Z,4224
2017-06-14T08:01:57.320Z,4192
2017-06-14T08:02:22.790Z,4176
2017-06-14T08:02:48.269Z,4168
2017-06-14T08:03:13.729Z,4144
2017-06-14T08:03:39.205Z,4136
2017-06-14T08:04:04.702Z,4108
2017-06-14T08:04:30.196Z,4100
2017-06-14T08:04:55.674Z,4092
2017-06-14T08:05:21.126Z,4084
2017-06-14T08:05:46.597Z,4068
2017-06-14T08:06:12.078Z,4068
2017-06-14T08:06:37.566Z,4052
2017-06-14T08:07:03.046Z,4040
2017-06-14T08:07:28.505Z,4020
2017-06-14T08:07:53.977Z,4008
2017-06-14T08:08:19.456Z,3996
2017-06-14T08:08:44.970Z,3976
2017-06-14T08:09:10.461Z,3960
2017-06-14T08:09:35.933Z,3956
2017-06-14T08:10:01.382Z,3960
2017-06-14T08:10:26.874Z,3936
2017-06-14T08:10:52.373Z,3928
2017-06-14T08:11:17.867Z,3920
2017-06-14T08:11:43.330Z,3908
2017-06-14T08:12:08.806Z,3896
2017-06-14T08:12:34.296Z,3876
2017-06-14T08:12:59.750Z,3864
2017-06-14T08:13:25.221Z,3848
2017-06-14T08:13:50.673Z,3840
2017-06-14T08:14:16.132Z,3824
2017-06-14T08:14:41.581Z,3804
2017-06-14T08:15:07.048Z,3796
2017-06-14T08:15:32.528Z,3772
2017-06-14T08:15:57.976Z,3752
2017-06-14T08:16:23.467Z,3732
2017-06-14T08:16:48.938Z,3728
2017-06-14T08:17:14.422Z,3720
2017-06-14T08:17:39.885Z,3712
2017-06-14T08:18:05.358Z,3712
2017-06-14T08:18:30.817Z,3696
2017-06-14T08:18:56.290Z,3684
2017-06-14T08:19:21.766Z,3668
2017-06-14T08:19:47.243Z,3636
2017-06-14T08:20:12.721Z,3564
2017-06-14T08:20:38.213Z,3476
2017-06-14T08:21:03.698Z,3472
2017-06-14T08:21:29.184Z,3512
2017-06-14T08:21:54.666Z,3552
2017-06-14T08:22:20.136Z,3572
2017-06-14T08:22:45.615Z,3592
2017-06-14T08:23:11.084Z,3596
2017-06-14T08:23:36.574Z,3600
2017-06-14T08:24:02.085Z,3588
2017-06-14T08:24:27.574Z,3576
2017-06-14T08:24:53.036Z,3564
2017-06-14T08:25:18.510Z,3552
2017-06-14T08:25:44.003Z,3552
2017-06-14T08:26:09.511Z,3560
2017-06-14T08:26:34.997Z,3548
2017-06-14T08:27:00.471Z,3544
2017-06-14T08:27:25.966Z,3536
2017-06-14T08:27:51.463Z,3528
2017-06-14T08:28:16.950Z,3516
2017-06-14T08:28:42.414Z,3500
2017-06-14T08:29:07.903Z,3492
2017-06-14T08:29:33.383Z,3488
2017-06-14T08:29:58.859Z,3472
2017-06-14T08:30:24.340Z,3456
2017-06-14T08:30:49.832Z,3452
2017-06-14T08:31:15.331Z,3444
2017-06-14T08:31:40.801Z,3444
2017-06-14T08:32:06.311Z,3436
2017-06-14T08:32:31.763Z,3428
2017-06-14T08:32:57.222Z,3416
2017-06-14T08:33:22.686Z,3408
2017-06-14T08:33:48.164Z,3404
2017-06-14T08:34:13.636Z,3392
2017-06-14T08:34:39.115Z,3392
2017-06-14T08:35:04.623Z,3388
2017-06-14T08:35:30.112Z,3384
2017-06-14T08:35:55.601Z,3380
2017-06-14T08:36:21.062Z,3376
2017-06-14T08:36:46.537Z,3372
2017-06-14T08:37:12.013Z,3368
2017-06-14T08:37:37.511Z,3364
2017-06-14T08:38:03.016Z,3356
2017-06-14T08:38:28.494Z,3356
2017-06-14T08:38:53.932Z,3344
2017-06-14T08:39:19.411Z,3336
2017-06-14T08:39:44.888Z,3328
2017-06-14T08:40:10.379Z,3324
2017-06-14T08:40:35.836Z,3320
2017-06-14T08:41:01.308Z,3312
2017-06-14T08:41:26.773Z,3304
2017-06-14T08:41:52.249Z,3300
2017-06-14T08:42:17.750Z,3300
2017-06-14T08:42:43.211Z,3300
2017-06-14T08:43:08.685Z,3304
2017-06-14T08:43:34.167Z,3300
2017-06-14T08:43:59.651Z,3300
2017-06-14T08:44:25.161Z,3292
2017-06-14T08:44:50.660Z,3288
2017-06-14T08:45:16.154Z,3280
2017-06-14T08:45:41.600Z,3280
2017-06-14T08:46:07.095Z,3276
2017-06-14T08:46:32.549Z,3272
2017-06-14T08:46:58.033Z,3272
2017-06-14T08:47:23.514Z,3264
2017-06-14T08:47:48.979Z,3260
2017-06-14T08:48:14.475Z,3252
2017-06-14T08:49:22.693Z,3236
2017-06-14T08:49:48.172Z,3236
2017-06-14T08:50:13.637Z,3232
2017-06-14T08:50:39.132Z,3220
2017-06-14T08:51:04.607Z,3220
2017-06-14T08:51:30.086Z,3220
2017-06-14T08:51:55.589Z,3224
2017-06-14T08:52:21.056Z,3220
2017-06-14T08:52:46.530Z,3212
2017-06-14T08:53:12.025Z,3204
2017-06-14T08:53:37.504Z,3204
2017-06-14T08:54:02.987Z,3200
2017-06-14T08:54:28.446Z,3180
2017-06-14T08:54:53.924Z,3184
2017-06-14T08:55:19.403Z,3188
2017-06-14T08:55:44.879Z,3188
2017-06-14T08:56:10.333Z,3176
2017-06-14T08:56:35.801Z,3172
2017-06-14T08:57:01.288Z,3168
2017-06-14T08:57:26.748Z,3160
2017-06-14T08:57:52.229Z,3152
2017-06-14T08:58:17.723Z,3148
2017-06-14T08:58:43.213Z,3148
2017-06-14T08:59:08.705Z,3140
2017-06-14T08:59:34.188Z,3132
2017-06-14T08:59:59.663Z,3132
2017-06-14T09:00:25.145Z,3128
2017-06-14T09:00:50.629Z,3124
2017-06-14T09:01:16.095Z,3120
2017-06-14T09:01:41.576Z,3112
2017-06-14T09:02:07.042Z,3112
2017-06-14T09:02:32.515Z,3104
2017-06-14T09:02:57.994Z,3100
2017-06-14T09:03:23.454Z,3096
2017-06-14T09:03:48.943Z,3092
2017-06-14T09:04:14.425Z,3088
2017-06-14T09:04:39.927Z,3088
2017-06-14T09:05:05.386Z,3084
2017-06-14T09:05:30.893Z,3080
2017-06-14T09:05:56.392Z,3076
2017-06-14T09:06:21.874Z,3076
2017-06-14T09:06:47.366Z,3072
2017-06-14T09:07:12.841Z,3072
2017-06-14T09:07:38.332Z,3064
2017-06-14T09:08:03.810Z,3060
2017-06-14T09:08:29.291Z,3060
2017-06-14T09:08:54.760Z,3060
2017-06-14T09:09:20.246Z,3060
2017-06-14T09:09:45.733Z,3056
2017-06-14T09:10:11.198Z,3052
2017-06-14T09:10:36.676Z,3024
2017-06-14T09:11:02.135Z,3040
2017-06-14T09:11:27.606Z,3044
2017-06-14T09:11:53.059Z,3040
2017-06-14T09:12:18.528Z,3036
2017-06-14T09:12:44.011Z,3032
2017-06-14T09:13:09.485Z,3024
2017-06-14T09:13:34.977Z,3012
2017-06-14T09:14:00.450Z,3012
2017-06-14T09:14:25.943Z,3004
2017-06-14T09:14:51.414Z,3000
2017-06-14T09:15:16.909Z,2988
2017-06-14T09:15:42.375Z,2984
2017-06-14T09:16:07.904Z,2984
2017-06-14T09:16:33.423Z,2980
2017-06-14T09:16:58.935Z,2980
2017-06-14T09:17:24.400Z,2976
2017-06-14T09:17:49.891Z,2976
2017-06-14T09:18:15.354Z,2972
2017-06-14T09:18:40.856Z,2972
2017-06-14T09:19:06.321Z,2972
2017-06-14T09:19:31.826Z,2964
2017-06-14T09:19:57.295Z,2964
2017-06-14T09:20:22.750Z,2968
2017-06-14T09:20:48.247Z,2964
2017-06-14T09:21:13.730Z,2964
2017-06-14T09:21:39.199Z,2960
2017-06-14T09:22:04.681Z,2964
2017-06-14T09:22:30.174Z,2964
2017-06-14T09:22:55.639Z,2964
2017-06-14T09:23:21.142Z,2960
2017-06-14T09:23:46.632Z,2960
2017-06-14T09:24:12.107Z,2964
2017-06-14T09:24:37.542Z,2964
2017-06-14T09:25:03.016Z,2960
2017-06-14T09:25:28.481Z,2956
2017-06-14T09:25:53.983Z,2960
2017-06-14T09:26:19.462Z,2956
2017-06-14T09:26:44.947Z,2956
2017-06-14T09:27:10.402Z,2948
2017-06-14T09:27:35.902Z,2940
2017-06-14T09:28:01.358Z,2936
2017-06-14T09:28:26.821Z,2932
2017-06-14T09:28:52.306Z,2928
2017-06-14T09:29:17.783Z,2924
2017-06-14T09:29:43.260Z,2920
2017-06-14T09:30:08.761Z,2912
2017-06-14T09:30:34.267Z,2908
2017-06-14T09:30:59.749Z,2900
2017-06-14T09:31:25.236Z,2892
2017-06-14T09:31:50.715Z,2888
2017-06-14T09:32:16.193Z,2888
2017-06-14T09:32:41.677Z,2888
2017-06-14T09:33:07.151Z,2888
2017-06-14T09:33:32.638Z,2888
2017-06-14T09:33:58.127Z,2888
2017-06-14T09:34:23.625Z,2884
2017-06-14T09:34:49.101Z,2884
2017-06-14T09:35:14.573Z,2884
2017-06-14T09:35:40.052Z,2888
2017-06-14T09:36:05.531Z,2888
2017-06-14T09:36:31.005Z,2880
2017-06-14T09:36:56.478Z,2876
2017-06-14T09:37:21.948Z,2876
2017-06-14T09:37:47.440Z,2868
2017-06-14T09:38:12.928Z,2868
2017-06-14T09:38:38.418Z,2868
2017-06-14T09:39:03.893Z,2868
2017-06-14T09:39:29.394Z,2864
2017-06-14T09:39:54.883Z,2860
2017-06-14T09:40:20.386Z,2860
2017-06-14T09:40:45.859Z,2860
2017-06-14T09:41:11.336Z,2860
2017-06-14T09:41:36.815Z,2860
2017-06-14T09:42:02.274Z,2856
2017-06-14T09:42:27.742Z,2852
2017-06-14T09:42:53.250Z,2848
2017-06-14T09:43:18.714Z,2844
2017-06-14T09:43:44.213Z,2848
2017-06-14T09:44:09.687Z,2848
2017-06-14T09:44:35.185Z,2848
2017-06-14T09:45:00.655Z,2844
2017-06-14T09:45:26.156Z,2840
2017-06-14T09:45:51.637Z,2836
2017-06-14T09:46:17.112Z,2836
2017-06-14T09:46:42.603Z,2824
2017-06-14T09:47:08.079Z,2816
2017-06-14T09:47:33.560Z,2812
2017-06-14T09:47:59.038Z,2808
2017-06-14T09:48:24.519Z,2800
2017-06-14T09:48:49.984Z,2792
2017-06-14T09:49:15.460Z,2788
2017-06-14T09:49:40.938Z,2784
2017-06-14T09:50:06.402Z,2776
2017-06-14T09:50:31.897Z,2776
2017-06-14T09:50:57.400Z,2772
2017-06-14T09:51:22.847Z,2772
2017-06-14T09:51:48.296Z,2776
2017-06-14T09:52:13.779Z,2768
2017-06-14T09:52:39.269Z,2764
2017-06-14T09:53:04.733Z,2764
2017-06-14T09:53:30.207Z,2760
2017-06-14T09:53:55.698Z,2760
2017-06-14T09:54:21.187Z,2752
2017-06-14T09:54:46.658Z,2752
2017-06-14T09:55:12.131Z,2744
2017-06-14T09:55:37.609Z,2740
2017-06-14T09:56:03.047Z,2740
2017-06-14T09:56:28.550Z,2740
2017-06-14T09:56:54.008Z,2740
2017-06-14T09:57:19.471Z,2740
2017-06-14T09:57:44.959Z,2748
2017-06-14T09:58:10.491Z,2752
2017-06-14T09:58:35.965Z,2752
2017-06-14T09:59:01.413Z,2752
2017-06-14T09:59:26.890Z,2756
2017-06-14T09:59:52.366Z,2760
2017-06-14T10:00:17.828Z,2760
2017-06-14T10:00:43.311Z,2760
2017-06-14T10:01:08.764Z,2760
2017-06-14T10:01:34.243Z,2756
2017-06-14T10:01:59.734Z,2748
2017-06-14T10:02:25.187Z,2748
2017-06-14T10:02:50.662Z,2756
2017-06-14T10:03:16.137Z,2744
2017-06-14T10:03:41.585Z,2732
2017-06-14T10:04:07.093Z,2724
2017-06-14T10:04:32.584Z,2708
2017-06-14T10:04:58.077Z,2700
2017-06-14T10:05:23.575Z,2692
2017-06-14T10:05:49.044Z,2672
2017-06-14T10:06:14.502Z,2664
2017-06-14T10:06:39.983Z,2664
2017-06-14T10:07:05.469Z,2652
2017-06-14T10:07:30.960Z,2644
2017-06-14T10:07:56.474Z,2640
2017-06-14T10:08:21.951Z,2644
2017-06-14T10:08:47.411Z,2644
2017-06-14T10:09:12.894Z,2648
2017-06-14T10:09:38.404Z,2648
2017-06-14T10:10:03.925Z,2652
2017-06-14T10:10:29.404Z,2644
2017-06-14T10:10:54.879Z,2648
2017-06-14T10:11:20.354Z,2644
2017-06-14T10:11:45.835Z,2632
2017-06-14T10:12:11.337Z,2624
2017-06-14T10:12:36.830Z,2624
2017-06-14T10:13:02.308Z,2632
2017-06-14T10:13:27.793Z,2636
2017-06-14T10:13:53.295Z,2656
2017-06-14T10:14:18.737Z,2680
2017-06-14T10:14:44.222Z,2680
2017-06-14T10:15:09.663Z,2676
2017-06-14T10:15:35.122Z,2688
2017-06-14T10:16:00.589Z,2684
2017-06-14T10:16:26.048Z,2680
2017-06-14T10:16:51.542Z,2628
2017-06-14T10:17:17.030Z,2708
2017-06-14T10:17:42.496Z,2728
2017-06-14T10:18:07.949Z,2736
2017-06-14T10:18:33.434Z,2740
2017-06-14T10:18:58.930Z,2748
2017-06-14T10:19:24.418Z,2756
2017-06-14T10:19:49.901Z,2768
2017-06-14T10:20:15.380Z,2780
2017-06-14T10:20:40.870Z,2792
2017-06-14T10:21:06.344Z,2808
2017-06-14T10:21:31.821Z,2800
2017-06-14T10:21:57.281Z,2808
2017-06-14T10:22:22.774Z,2800
2017-06-14T10:22:48.197Z,2796
2017-06-14T10:23:13.690Z,2776
2017-06-14T10:23:39.181Z,2752
2017-06-14T10:24:04.661Z,2744
2017-06-14T10:24:30.164Z,2748
2017-06-14T10:24:55.663Z,2732
2017-06-14T10:25:21.157Z,2716
2017-06-14T10:25:46.621Z,2696
2017-06-14T10:26:12.112Z,2672
2017-06-14T10:26:37.598Z,2668
2017-06-14T10:27:03.086Z,2644
2017-06-14T10:27:28.538Z,2676
2017-06-14T10:27:54.031Z,2660